Time,TemperatureF,DewpointF,PressureIn,WindDirection,WindDirectionDegrees,WindSpeedMPH,WindSpeedGustMPH,Humidity,HourlyPrecipIn,Conditions,Clouds,dailyrainin,SoftwareType,DateUTC
2013-02-12 00:00:00,38.3,37.8,29.66,WNW,293,12.0,19.0,98,0.00,,,0.22,VWS V14.01,2013-02-12 05:00:00,
2013-02-12 00:05:00,38.0,37.5,29.66,WNW,288,6.0,7.0,98,0.00,,,0.00,VWS V14.01,2013-02-12 05:05:00,
2013-02-12 00:10:00,37.8,37.3,29.66,West,266,7.0,18.0,98,0.00,,,0.00,VWS V14.01,2013-02-12 05:10:00,
2013-02-12 00:15:00,37.6,37.1,29.66,WNW,299,5.0,18.0,98,0.00,,,0.00,VWS V14.01,2013-02-12 05:15:00,
2013-02-12 00:20:00,37.3,36.8,29.66,West,268,6.0,18.0,98,0.00,,,0.00,VWS V14.01,2013-02-12 05:20:00,
2013-02-12 00:25:00,37.1,36.6,29.66,WNW,300,6.0,18.0,98,0.00,,,0.00,VWS V14.01,2013-02-12 05:25:00,
2013-02-12 00:30:00,37.0,36.5,29.66,WSW,252,8.0,18.0,98,0.00,,,0.00,VWS V14.01,2013-02-12 05:30:00,
2013-02-12 00:35:00,36.9,36.4,29.66,WNW,292,6.0,7.0,98,0.00,,,0.00,VWS V14.01,2013-02-12 05:35:00,
2013-02-12 00:40:00,36.8,36.3,29.65,West,261,10.0,12.0,98,0.00,,,0.00,VWS V14.01,2013-02-12 05:40:00,
2013-02-12 00:45:00,36.7,36.2,29.65,West,279,3.0,13.0,98,0.00,,,0.00,VWS V14.01,2013-02-12 05:45:00,
2013-02-12 00:50:00,36.6,36.1,29.65,West,277,6.0,13.0,98,0.00,,,0.00,VWS V14.01,2013-02-12 05:50:00,
2013-02-12 00:55:00,36.4,35.9,29.65,SW,236,4.0,13.0,98,0.00,,,0.00,VWS V14.01,2013-02-12 05:55:00,
2013-02-12 01:00:00,36.3,35.8,29.65,WSW,257,7.0,13.0,98,0.00,,,0.00,VWS V14.01,2013-02-12 06:00:00,
2013-02-12 01:05:00,36.2,35.7,29.65,West,270,4.0,5.0,98,0.00,,,0.00,VWS V14.01,2013-02-12 06:05:00,
2013-02-12 01:10:00,36.1,35.6,29.65,West,273,11.0,11.0,98,0.00,,,0.00,VWS V14.01,2013-02-12 06:10:00,
2013-02-12 01:15:00,36.0,35.5,29.66,WNW,288,8.0,12.0,98,0.00,,,0.00,VWS V14.01,2013-02-12 06:15:00,
2013-02-12 01:20:00,35.9,35.1,29.66,West,281,13.0,17.0,97,0.00,,,0.00,VWS V14.01,2013-02-12 06:20:00,
2013-02-12 01:25:00,35.7,34.9,29.66,WSW,243,9.0,17.0,97,0.00,,,0.00,VWS V14.01,2013-02-12 06:25:00,
2013-02-12 01:30:00,35.5,34.7,29.67,West,268,8.0,17.0,97,0.00,,,0.00,VWS V14.01,2013-02-12 06:30:00,
2013-02-12 01:35:00,35.3,34.3,29.67,West,274,5.0,5.0,96,0.00,,,0.00,VWS V14.01,2013-02-12 06:35:00,
2013-02-12 01:40:00,35.1,34.1,29.67,WNW,297,2.0,12.0,96,0.00,,,0.00,VWS V14.01,2013-02-12 06:40:00,
2013-02-12 01:45:00,34.9,33.9,29.67,West,275,5.0,12.0,96,0.00,,,0.00,VWS V14.01,2013-02-12 06:45:00,
2013-02-12 01:50:00,34.8,33.8,29.68,NW,310,8.0,12.0,96,0.00,,,0.00,VWS V14.01,2013-02-12 06:50:00,
2013-02-12 01:55:00,34.6,33.6,29.68,WNW,286,4.0,12.0,96,0.00,,,0.00,VWS V14.01,2013-02-12 06:55:00,
2013-02-12 02:00:00,34.4,33.1,29.67,NW,309,7.0,15.0,95,0.00,,,0.00,VWS V14.01,2013-02-12 07:00:00,
2013-02-12 02:05:00,34.3,33.0,29.67,West,275,4.0,6.0,95,0.00,,,0.00,VWS V14.01,2013-02-12 07:05:00,
2013-02-12 02:10:00,34.2,32.9,29.67,NW,309,6.0,10.0,95,0.00,,,0.00,VWS V14.01,2013-02-12 07:10:00,
2013-02-12 02:15:00,34.0,32.7,29.67,West,271,5.0,12.0,95,0.00,,,0.00,VWS V14.01,2013-02-12 07:15:00,
2013-02-12 02:20:00,33.9,32.6,29.67,NW,304,2.0,13.0,95,0.00,,,0.00,VWS V14.01,2013-02-12 07:20:00,
2013-02-12 02:25:00,33.7,32.4,29.67,NW,305,5.0,13.0,95,0.00,,,0.00,VWS V14.01,2013-02-12 07:25:00,
2013-02-12 02:30:00,33.7,32.4,29.67,West,278,4.0,13.0,95,0.00,,,0.00,VWS V14.01,2013-02-12 07:30:00,
2013-02-12 02:35:00,33.6,32.3,29.67,WNW,301,3.0,3.0,95,0.00,,,0.00,VWS V14.01,2013-02-12 07:35:00,
2013-02-12 02:40:00,33.5,32.2,29.67,WSW,257,3.0,11.0,95,0.00,,,0.00,VWS V14.01,2013-02-12 07:40:00,
2013-02-12 02:45:00,33.4,32.1,29.67,West,281,2.0,11.0,95,0.00,,,0.00,VWS V14.01,2013-02-12 07:45:00,
2013-02-12 02:50:00,33.3,32.0,29.67,West,265,6.0,11.0,95,0.00,,,0.00,VWS V14.01,2013-02-12 07:50:00,
2013-02-12 02:55:00,33.2,31.9,29.67,West,274,5.0,11.0,95,0.00,,,0.00,VWS V14.01,2013-02-12 07:55:00,
2013-02-12 03:00:00,33.2,31.7,29.67,West,274,9.0,12.0,94,0.00,,,0.00,VWS V14.01,2013-02-12 08:00:00,
2013-02-12 03:05:00,33.2,31.7,29.67,WNW,298,7.0,7.0,94,0.00,,,0.00,VWS V14.01,2013-02-12 08:05:00,
2013-02-12 03:10:00,33.1,31.6,29.67,WNW,288,3.0,9.0,94,0.00,,,0.00,VWS V14.01,2013-02-12 08:10:00,
2013-02-12 03:15:00,33.0,31.5,29.67,WSW,241,6.0,11.0,94,0.00,,,0.00,VWS V14.01,2013-02-12 08:15:00,
2013-02-12 03:20:00,33.0,31.5,29.67,SW,235,2.0,11.0,94,0.00,,,0.00,VWS V14.01,2013-02-12 08:20:00,
2013-02-12 03:25:00,33.0,31.7,29.67,WNW,294,5.0,11.0,95,0.00,,,0.00,VWS V14.01,2013-02-12 08:25:00,
2013-02-12 03:30:00,32.9,31.4,29.67,West,267,3.0,11.0,94,0.00,,,0.00,VWS V14.01,2013-02-12 08:30:00,
2013-02-12 03:35:00,32.8,31.3,29.67,West,260,0.0,0.0,94,0.00,,,0.00,VWS V14.01,2013-02-12 08:35:00,
2013-02-12 03:40:00,32.6,31.1,29.67,West,279,2.0,9.0,94,0.00,,,0.00,VWS V14.01,2013-02-12 08:40:00,
2013-02-12 03:45:00,32.6,31.3,29.67,WSW,240,3.0,9.0,95,0.00,,,0.00,VWS V14.01,2013-02-12 08:45:00,
2013-02-12 03:50:00,32.5,31.2,29.68,WNW,289,2.0,9.0,95,0.00,,,0.00,VWS V14.01,2013-02-12 08:50:00,
2013-02-12 03:55:00,32.5,31.2,29.67,SW,227,7.0,9.0,95,0.00,,,0.00,VWS V14.01,2013-02-12 08:55:00,
2013-02-12 04:00:00,32.5,31.2,29.68,West,275,2.0,9.0,95,0.00,,,0.00,VWS V14.01,2013-02-12 09:00:00,
2013-02-12 04:05:00,32.5,31.2,29.68,West,263,7.0,7.0,95,0.00,,,0.00,VWS V14.01,2013-02-12 09:05:00,
2013-02-12 04:10:00,32.6,31.3,29.68,West,265,2.0,8.0,95,0.00,,,0.00,VWS V14.01,2013-02-12 09:10:00,
2013-02-12 04:15:00,32.7,31.4,29.68,West,274,2.0,10.0,95,0.00,,,0.00,VWS V14.01,2013-02-12 09:15:00,
2013-02-12 04:20:00,32.7,31.4,29.68,WSW,254,5.0,10.0,95,0.00,,,0.00,VWS V14.01,2013-02-12 09:20:00,
2013-02-12 04:25:00,32.7,31.4,29.68,WSW,250,6.0,10.0,95,0.00,,,0.00,VWS V14.01,2013-02-12 09:25:00,
2013-02-12 04:30:00,32.6,31.3,29.68,WNW,286,4.0,11.0,95,0.00,,,0.00,VWS V14.01,2013-02-12 09:30:00,
2013-02-12 04:35:00,32.6,31.1,29.68,West,272,3.0,3.0,94,0.00,,,0.00,VWS V14.01,2013-02-12 09:35:00,
2013-02-12 04:40:00,32.6,31.1,29.68,WSW,254,7.0,10.0,94,0.00,,,0.00,VWS V14.01,2013-02-12 09:40:00,
2013-02-12 04:45:00,32.7,31.2,29.67,NW,309,4.0,10.0,94,0.00,,,0.00,VWS V14.01,2013-02-12 09:45:00,
2013-02-12 04:50:00,32.7,31.2,29.67,West,263,5.0,14.0,94,0.00,,,0.00,VWS V14.01,2013-02-12 09:50:00,
2013-02-12 04:55:00,32.8,31.3,29.67,WNW,282,4.0,15.0,94,0.00,,,0.00,VWS V14.01,2013-02-12 09:55:00,
2013-02-12 05:00:00,32.8,31.0,29.67,West,269,8.0,15.0,93,0.00,,,0.00,VWS V14.01,2013-02-12 10:00:00,
2013-02-12 05:05:00,32.9,31.1,29.67,WNW,294,11.0,11.0,93,0.00,,,0.00,VWS V14.01,2013-02-12 10:05:00,
2013-02-12 05:10:00,33.0,31.2,29.66,NW,321,3.0,15.0,93,0.00,,,0.00,VWS V14.01,2013-02-12 10:10:00,
2013-02-12 05:15:00,33.1,31.0,29.66,WNW,290,5.0,15.0,92,0.00,,,0.00,VWS V14.01,2013-02-12 10:15:00,
2013-02-12 05:20:00,33.1,31.0,29.66,WNW,286,4.0,15.0,92,0.00,,,0.00,VWS V14.01,2013-02-12 10:20:00,
2013-02-12 05:25:00,33.0,30.9,29.66,West,268,6.0,15.0,92,0.00,,,0.00,VWS V14.01,2013-02-12 10:25:00,
2013-02-12 05:30:00,33.0,30.9,29.66,WNW,284,7.0,15.0,92,0.00,,,0.00,VWS V14.01,2013-02-12 10:30:00,
2013-02-12 05:35:00,33.1,30.8,29.66,WNW,286,6.0,6.0,91,0.00,,,0.00,VWS V14.01,2013-02-12 10:35:00,
2013-02-12 05:40:00,33.2,30.9,29.66,NW,306,13.0,17.0,91,0.00,,,0.00,VWS V14.01,2013-02-12 10:40:00,
2013-02-12 05:45:00,33.2,30.9,29.67,WNW,290,11.0,17.0,91,0.00,,,0.00,VWS V14.01,2013-02-12 10:45:00,
2013-02-12 05:50:00,33.3,31.0,29.67,SSW,203,6.0,17.0,91,0.00,,,0.00,VWS V14.01,2013-02-12 10:50:00,
2013-02-12 05:55:00,33.4,31.1,29.67,NW,321,3.0,18.0,91,0.00,,,0.00,VWS V14.01,2013-02-12 10:55:00,
2013-02-12 06:00:00,33.5,30.9,29.68,West,269,9.0,18.0,90,0.00,,,0.00,VWS V14.01,2013-02-12 11:00:00,
2013-02-12 06:05:00,33.6,31.3,29.68,West,264,10.0,10.0,91,0.00,,,0.00,VWS V14.01,2013-02-12 11:05:00,
2013-02-12 06:10:00,33.7,31.1,29.68,West,266,12.0,14.0,90,0.00,,,0.00,VWS V14.01,2013-02-12 11:10:00,
2013-02-12 06:15:00,34.0,31.4,29.68,WSW,256,8.0,21.0,90,0.00,,,0.00,VWS V14.01,2013-02-12 11:15:00,
2013-02-12 06:20:00,34.1,31.5,29.68,WSW,254,7.0,21.0,90,0.00,,,0.00,VWS V14.01,2013-02-12 11:20:00,
2013-02-12 06:25:00,34.1,31.5,29.68,WNW,288,10.0,21.0,90,0.00,,,0.00,VWS V14.01,2013-02-12 11:25:00,
2013-02-12 06:30:00,34.2,31.6,29.68,WSW,238,6.0,21.0,90,0.00,,,0.00,VWS V14.01,2013-02-12 11:30:00,
2013-02-12 06:35:00,34.1,31.5,29.68,WSW,257,3.0,21.0,90,0.00,,,0.00,VWS V14.01,2013-02-12 11:35:00,
2013-02-12 06:40:00,34.1,31.5,29.68,WSW,249,4.0,14.0,90,0.00,,,0.00,VWS V14.01,2013-02-12 11:40:00,
2013-02-12 06:45:00,34.2,31.6,29.68,West,277,2.0,14.0,90,0.00,,,0.00,VWS V14.01,2013-02-12 11:45:00,
2013-02-12 06:50:00,34.1,31.8,29.69,WSW,248,5.0,14.0,91,0.00,,,0.00,VWS V14.01,2013-02-12 11:50:00,
2013-02-12 06:55:00,34.2,31.9,29.69,SW,227,3.0,14.0,91,0.00,,,0.00,VWS V14.01,2013-02-12 11:55:00,
2013-02-12 07:00:00,34.2,31.9,29.69,WNW,287,2.0,14.0,91,0.00,,,0.00,VWS V14.01,2013-02-12 12:00:00,
2013-02-12 07:05:00,34.3,32.0,29.69,SW,234,7.0,16.0,91,0.00,,,0.00,VWS V14.01,2013-02-12 12:05:00,
2013-02-12 07:10:00,34.4,32.0,29.69,WNW,296,4.0,14.0,91,0.00,,,0.00,VWS V14.01,2013-02-12 12:10:00,
2013-02-12 07:15:00,34.4,32.0,29.69,WSW,249,6.0,14.0,91,0.00,,,0.00,VWS V14.01,2013-02-12 12:15:00,
2013-02-12 07:20:00,34.6,32.2,29.69,West,260,9.0,14.0,91,0.00,,,0.00,VWS V14.01,2013-02-12 12:20:00,
2013-02-12 07:25:00,34.6,32.0,29.69,WSW,250,4.0,15.0,90,0.00,,,0.00,VWS V14.01,2013-02-12 12:25:00,
2013-02-12 07:30:00,34.8,32.2,29.69,WNW,285,9.0,15.0,90,0.00,,,0.00,VWS V14.01,2013-02-12 12:30:00,
2013-02-12 07:35:00,34.8,32.2,29.69,WNW,298,4.0,15.0,90,0.00,,,0.00,VWS V14.01,2013-02-12 12:35:00,
2013-02-12 07:40:00,34.8,32.2,29.68,WSW,258,5.0,13.0,90,0.00,,,0.00,VWS V14.01,2013-02-12 12:40:00,
2013-02-12 07:45:00,34.8,32.2,29.68,West,261,7.0,16.0,90,0.00,,,0.00,VWS V14.01,2013-02-12 12:45:00,
2013-02-12 07:50:00,34.7,32.1,29.68,West,268,9.0,16.0,90,0.00,,,0.00,VWS V14.01,2013-02-12 12:50:00,
2013-02-12 07:55:00,34.7,31.8,29.68,WNW,287,6.0,16.0,89,0.00,,,0.00,VWS V14.01,2013-02-12 12:55:00,
2013-02-12 08:00:00,34.8,32.2,29.68,WNW,298,3.0,17.0,90,0.00,,,0.00,VWS V14.01,2013-02-12 13:00:00,
2013-02-12 08:05:00,34.8,31.9,29.68,WSW,243,13.0,19.0,89,0.00,,,0.00,VWS V14.01,2013-02-12 13:05:00,
2013-02-12 08:10:00,34.9,32.0,29.68,WNW,284,7.0,15.0,89,0.00,,,0.00,VWS V14.01,2013-02-12 13:10:00,
2013-02-12 08:15:00,35.2,32.0,29.68,West,264,14.0,17.0,88,0.00,,,0.00,VWS V14.01,2013-02-12 13:15:00,
2013-02-12 08:20:00,36.0,31.9,29.69,West,262,5.0,20.0,85,0.00,,,0.00,VWS V14.01,2013-02-12 13:20:00,
2013-02-12 08:25:00,36.3,32.2,29.69,West,271,4.0,20.0,85,0.00,,,0.00,VWS V14.01,2013-02-12 13:25:00,
2013-02-12 08:29:00,36.5,32.4,29.69,SSW,199,7.0,20.0,85,0.00,,,0.00,VWS V14.01,2013-02-12 13:29:00,
2013-02-12 08:34:00,36.5,31.8,29.69,WNW,284,7.0,26.0,83,0.00,,,0.00,VWS V14.01,2013-02-12 13:34:00,
2013-02-12 08:39:00,36.8,32.1,29.70,WSW,258,15.0,18.0,83,0.00,,,0.00,VWS V14.01,2013-02-12 13:39:00,
2013-02-12 08:44:00,37.0,31.7,29.70,WNW,284,7.0,19.0,81,0.00,,,0.00,VWS V14.01,2013-02-12 13:44:00,
2013-02-12 08:49:00,37.3,32.0,29.70,NW,321,10.0,22.0,81,0.00,,,0.00,VWS V14.01,2013-02-12 13:49:00,
2013-02-12 08:54:00,37.5,32.2,29.70,West,274,5.0,22.0,81,0.00,,,0.00,VWS V14.01,2013-02-12 13:54:00,
2013-02-12 08:59:00,37.5,31.9,29.70,NW,304,7.0,22.0,80,0.00,,,0.00,VWS V14.01,2013-02-12 13:59:00,
2013-02-12 09:04:00,37.7,32.1,29.70,NW,323,11.0,22.0,80,0.00,,,0.00,VWS V14.01,2013-02-12 14:04:00,
2013-02-12 09:09:00,37.8,31.9,29.70,West,281,6.0,15.0,79,0.00,,,0.00,VWS V14.01,2013-02-12 14:09:00,
2013-02-12 09:14:00,37.9,31.7,29.70,WSW,250,6.0,17.0,78,0.00,,,0.00,VWS V14.01,2013-02-12 14:14:00,
2013-02-12 09:19:00,38.0,31.4,29.70,West,279,12.0,20.0,77,0.00,,,0.00,VWS V14.01,2013-02-12 14:19:00,
2013-02-12 09:24:00,38.1,31.5,29.71,WNW,292,8.0,21.0,77,0.00,,,0.00,VWS V14.01,2013-02-12 14:24:00,
2013-02-12 09:29:00,38.4,31.8,29.70,WSW,254,12.0,21.0,77,0.00,,,0.00,VWS V14.01,2013-02-12 14:29:00,
2013-02-12 09:34:00,38.4,31.5,29.70,West,259,9.0,21.0,76,0.00,,,0.00,VWS V14.01,2013-02-12 14:34:00,
2013-02-12 09:39:00,38.4,31.2,29.71,WSW,237,12.0,32.0,75,0.00,,,0.00,VWS V14.01,2013-02-12 14:39:00,
2013-02-12 09:44:00,38.4,31.5,29.71,WSW,242,5.0,32.0,76,0.00,,,0.00,VWS V14.01,2013-02-12 14:44:00,
2013-02-12 09:49:00,38.5,31.0,29.71,West,265,8.0,32.0,74,0.00,,,0.00,VWS V14.01,2013-02-12 14:49:00,
2013-02-12 09:54:00,38.5,31.3,29.71,WSW,257,9.0,32.0,75,0.00,,,0.00,VWS V14.01,2013-02-12 14:54:00,
2013-02-12 09:59:00,38.7,31.1,29.72,NW,305,13.0,32.0,74,0.00,,,0.00,VWS V14.01,2013-02-12 14:59:00,
2013-02-12 10:04:00,38.9,31.0,29.72,WNW,297,4.0,32.0,73,0.00,,,0.00,VWS V14.01,2013-02-12 15:04:00,
2013-02-12 10:09:00,39.0,31.1,29.72,WSW,240,20.0,20.0,73,0.00,,,0.00,VWS V14.01,2013-02-12 15:09:00,
2013-02-12 10:14:00,39.5,31.2,29.72,WSW,238,8.0,20.0,72,0.00,,,0.00,VWS V14.01,2013-02-12 15:14:00,
2013-02-12 10:19:00,39.4,31.1,29.73,West,266,5.0,20.0,72,0.00,,,0.00,VWS V14.01,2013-02-12 15:19:00,
2013-02-12 10:24:00,39.1,30.9,29.73,West,259,8.0,20.0,72,0.00,,,0.00,VWS V14.01,2013-02-12 15:24:00,
2013-02-12 10:29:00,39.1,30.9,29.73,NW,311,8.0,20.0,72,0.00,,,0.00,VWS V14.01,2013-02-12 15:29:00,
2013-02-12 10:34:00,39.3,30.7,29.73,WSW,241,13.0,20.0,71,0.00,,,0.00,VWS V14.01,2013-02-12 15:34:00,
2013-02-12 10:39:00,39.5,30.9,29.73,WNW,287,3.0,13.0,71,0.00,,,0.00,VWS V14.01,2013-02-12 15:39:00,
2013-02-12 10:44:00,39.7,30.7,29.73,NNW,329,7.0,15.0,70,0.00,,,0.00,VWS V14.01,2013-02-12 15:44:00,
2013-02-12 10:49:00,40.0,30.7,29.73,NW,321,14.0,15.0,69,0.00,,,0.00,VWS V14.01,2013-02-12 15:49:00,
2013-02-12 10:54:00,39.6,29.6,29.73,NW,310,15.0,24.0,67,0.00,,,0.00,VWS V14.01,2013-02-12 15:54:00,
2013-02-12 10:59:00,39.9,29.5,29.73,WNW,284,11.0,24.0,66,0.00,,,0.00,VWS V14.01,2013-02-12 15:59:00,
2013-02-12 11:04:00,40.3,29.1,29.74,WNW,282,9.0,24.0,64,0.00,,,0.00,VWS V14.01,2013-02-12 16:04:00,
2013-02-12 11:09:00,40.0,28.0,29.74,West,279,8.0,21.0,62,0.00,,,0.00,VWS V14.01,2013-02-12 16:09:00,
2013-02-12 11:14:00,39.5,27.6,29.73,West,265,7.0,21.0,62,0.00,,,0.00,VWS V14.01,2013-02-12 16:14:00,
2013-02-12 11:19:00,39.1,27.2,29.73,SW,229,12.0,24.0,62,0.00,,,0.00,VWS V14.01,2013-02-12 16:19:00,
2013-02-12 11:24:00,39.6,27.7,29.73,West,276,7.0,24.0,62,0.00,,,0.00,VWS V14.01,2013-02-12 16:24:00,
2013-02-12 11:29:00,39.5,27.2,29.73,WNW,294,16.0,24.0,61,0.00,,,0.00,VWS V14.01,2013-02-12 16:29:00,
2013-02-12 11:34:00,39.3,27.4,29.73,West,275,11.0,25.0,62,0.00,,,0.00,VWS V14.01,2013-02-12 16:34:00,
2013-02-12 11:39:00,39.5,27.6,29.73,West,278,8.0,24.0,62,0.00,,,0.00,VWS V14.01,2013-02-12 16:39:00,
2013-02-12 11:44:00,39.5,27.6,29.73,West,269,17.0,24.0,62,0.00,,,0.00,VWS V14.01,2013-02-12 16:44:00,
2013-02-12 11:49:00,39.7,27.8,29.74,West,280,24.0,24.0,62,0.00,,,0.00,VWS V14.01,2013-02-12 16:49:00,
2013-02-12 11:54:00,40.2,27.8,29.74,West,263,14.0,24.0,61,0.00,,,0.00,VWS V14.01,2013-02-12 16:54:00,
2013-02-12 11:59:00,39.9,27.6,29.73,West,262,19.0,24.0,61,0.00,,,0.00,VWS V14.01,2013-02-12 16:59:00,
2013-02-12 12:04:00,39.4,27.1,29.74,NW,310,7.0,24.0,61,0.00,,,0.00,VWS V14.01,2013-02-12 17:04:00,
2013-02-12 12:09:00,39.5,27.6,29.74,North,355,1.0,16.0,62,0.00,,,0.00,VWS V14.01,2013-02-12 17:09:00,
2013-02-12 12:14:00,40.3,27.9,29.74,NW,325,17.0,18.0,61,0.00,,,0.00,VWS V14.01,2013-02-12 17:14:00,
2013-02-12 12:19:00,40.3,27.5,29.75,WNW,292,12.0,18.0,60,0.00,,,0.00,VWS V14.01,2013-02-12 17:19:00,
2013-02-12 12:24:00,40.1,27.8,29.75,WSW,253,15.0,18.0,61,0.00,,,0.00,VWS V14.01,2013-02-12 17:24:00,
2013-02-12 12:29:00,39.4,27.5,29.75,WNW,296,8.0,23.0,62,0.00,,,0.00,VWS V14.01,2013-02-12 17:29:00,
2013-02-12 12:34:00,39.4,27.5,29.75,West,273,4.0,23.0,62,0.00,,,0.00,VWS V14.01,2013-02-12 17:34:00,
2013-02-12 12:39:00,39.4,27.5,29.74,NNW,335,7.0,21.0,62,0.00,,,0.00,VWS V14.01,2013-02-12 17:39:00,
2013-02-12 12:44:00,39.4,27.9,29.74,WSW,248,11.0,21.0,63,0.00,,,0.00,VWS V14.01,2013-02-12 17:44:00,
2013-02-12 12:49:00,39.5,28.0,29.75,NW,320,8.0,21.0,63,0.00,,,0.00,VWS V14.01,2013-02-12 17:49:00,
2013-02-12 12:54:00,39.3,27.4,29.75,West,263,5.0,21.0,62,0.00,,,0.00,VWS V14.01,2013-02-12 17:54:00,
2013-02-12 12:59:00,39.2,27.7,29.75,WNW,286,4.0,21.0,63,0.00,,,0.00,VWS V14.01,2013-02-12 17:59:00,
2013-02-12 13:04:00,39.3,27.8,29.75,WSW,250,11.0,21.0,63,0.00,,,0.00,VWS V14.01,2013-02-12 18:04:00,
2013-02-12 13:09:00,39.1,28.0,29.75,WNW,289,8.0,17.0,64,0.00,,,0.00,VWS V14.01,2013-02-12 18:09:00,
2013-02-12 13:14:00,39.2,28.1,29.75,West,278,9.0,17.0,64,0.00,,,0.00,VWS V14.01,2013-02-12 18:14:00,
2013-02-12 13:19:00,39.3,28.2,29.75,SW,227,5.0,17.0,64,0.00,,,0.00,VWS V14.01,2013-02-12 18:19:00,
2013-02-12 13:24:00,39.5,28.0,29.75,WSW,242,11.0,20.0,63,0.00,,,0.00,VWS V14.01,2013-02-12 18:24:00,
2013-02-12 13:29:00,39.0,27.5,29.75,West,263,8.0,25.0,63,0.00,,,0.00,VWS V14.01,2013-02-12 18:29:00,
2013-02-12 13:34:00,38.8,27.7,29.75,West,261,9.0,25.0,64,0.00,,,0.00,VWS V14.01,2013-02-12 18:34:00,
2013-02-12 13:39:00,39.2,28.1,29.75,West,273,9.0,18.0,64,0.00,,,0.00,VWS V14.01,2013-02-12 18:39:00,
2013-02-12 13:44:00,38.9,27.8,29.75,WSW,245,7.0,21.0,64,0.00,,,0.00,VWS V14.01,2013-02-12 18:44:00,
2013-02-12 13:49:00,39.0,27.9,29.75,West,267,3.0,21.0,64,0.00,,,0.00,VWS V14.01,2013-02-12 18:49:00,
2013-02-12 13:54:00,38.9,27.8,29.76,West,272,6.0,29.0,64,0.00,,,0.00,VWS V14.01,2013-02-12 18:54:00,
2013-02-12 13:59:00,38.8,27.7,29.76,SW,216,14.0,29.0,64,0.00,,,0.00,VWS V14.01,2013-02-12 18:59:00,
2013-02-12 14:04:00,39.0,27.9,29.76,WNW,285,11.0,29.0,64,0.00,,,0.00,VWS V14.01,2013-02-12 19:04:00,
2013-02-12 14:09:00,38.9,27.8,29.76,West,265,9.0,15.0,64,0.00,,,0.00,VWS V14.01,2013-02-12 19:09:00,
2013-02-12 14:14:00,38.9,27.8,29.77,WNW,286,4.0,15.0,64,0.00,,,0.00,VWS V14.01,2013-02-12 19:14:00,
2013-02-12 14:19:00,38.9,27.8,29.77,WNW,292,11.0,16.0,64,0.00,,,0.00,VWS V14.01,2013-02-12 19:19:00,
2013-02-12 14:24:00,38.8,27.7,29.77,NW,317,9.0,19.0,64,0.00,,,0.00,VWS V14.01,2013-02-12 19:24:00,
2013-02-12 14:29:00,38.7,27.6,29.77,SW,233,16.0,19.0,64,0.00,,,0.00,VWS V14.01,2013-02-12 19:29:00,
2013-02-12 14:34:00,38.6,27.9,29.78,West,275,9.0,20.0,65,0.00,,,0.00,VWS V14.01,2013-02-12 19:34:00,
2013-02-12 14:39:00,38.7,27.6,29.78,WSW,252,5.0,10.0,64,0.00,,,0.00,VWS V14.01,2013-02-12 19:39:00,
2013-02-12 14:44:00,38.6,27.9,29.78,West,264,4.0,14.0,65,0.00,,,0.00,VWS V14.01,2013-02-12 19:44:00,
2013-02-12 14:49:00,38.5,28.1,29.78,West,274,9.0,14.0,66,0.00,,,0.00,VWS V14.01,2013-02-12 19:49:00,
2013-02-12 14:54:00,38.2,27.9,29.78,WNW,289,15.0,17.0,66,0.00,,,0.00,VWS V14.01,2013-02-12 19:54:00,
2013-02-12 14:59:00,38.1,28.1,29.78,WNW,291,3.0,24.0,67,0.00,,,0.00,VWS V14.01,2013-02-12 19:59:00,
2013-02-12 15:04:00,38.0,28.0,29.78,West,276,4.0,24.0,67,0.00,,,0.00,VWS V14.01,2013-02-12 20:04:00,
2013-02-12 15:09:00,37.8,27.8,29.78,WNW,296,6.0,18.0,67,0.00,,,0.00,VWS V14.01,2013-02-12 20:09:00,
2013-02-12 15:14:00,37.7,27.8,29.77,WNW,287,5.0,20.0,67,0.00,,,0.00,VWS V14.01,2013-02-12 20:14:00,
2013-02-12 15:19:00,37.7,28.1,29.78,West,262,14.0,20.0,68,0.00,,,0.00,VWS V14.01,2013-02-12 20:19:00,
2013-02-12 15:24:00,37.7,27.8,29.78,West,280,6.0,20.0,67,0.00,,,0.00,VWS V14.01,2013-02-12 20:24:00,
2013-02-12 15:29:00,37.6,28.0,29.78,West,264,16.0,20.0,68,0.00,,,0.00,VWS V14.01,2013-02-12 20:29:00,
2013-02-12 15:34:00,37.7,27.8,29.78,West,277,7.0,22.0,67,0.00,,,0.00,VWS V14.01,2013-02-12 20:34:00,
2013-02-12 15:39:00,37.5,27.9,29.78,SSW,209,2.0,18.0,68,0.00,,,0.00,VWS V14.01,2013-02-12 20:39:00,
2013-02-12 15:44:00,37.5,27.9,29.78,West,266,2.0,18.0,68,0.00,,,0.00,VWS V14.01,2013-02-12 20:44:00,
2013-02-12 15:49:00,37.5,27.9,29.78,WNW,298,4.0,18.0,68,0.00,,,0.00,VWS V14.01,2013-02-12 20:49:00,
2013-02-12 15:54:00,37.4,27.8,29.78,NW,305,13.0,18.0,68,0.00,,,0.00,VWS V14.01,2013-02-12 20:54:00,
2013-02-12 15:59:00,37.3,27.7,29.78,SW,234,10.0,18.0,68,0.00,,,0.00,VWS V14.01,2013-02-12 20:59:00,
2013-02-12 16:04:00,37.1,27.5,29.79,WNW,298,15.0,18.0,68,0.00,,,0.00,VWS V14.01,2013-02-12 21:04:00,
2013-02-12 16:09:00,37.1,27.9,29.78,NW,305,4.0,13.0,69,0.00,,,0.00,VWS V14.01,2013-02-12 21:09:00,
2013-02-12 16:14:00,37.0,27.8,29.78,WNW,292,5.0,13.0,69,0.00,,,0.00,VWS V14.01,2013-02-12 21:14:00,
2013-02-12 16:19:00,37.0,27.8,29.78,NW,316,8.0,14.0,69,0.00,,,0.00,VWS V14.01,2013-02-12 21:19:00,
2013-02-12 16:24:00,37.1,27.9,29.78,WNW,291,5.0,14.0,69,0.00,,,0.00,VWS V14.01,2013-02-12 21:24:00,
2013-02-12 16:29:00,37.0,27.8,29.78,WSW,242,7.0,14.0,69,0.00,,,0.00,VWS V14.01,2013-02-12 21:29:00,
2013-02-12 16:34:00,36.9,27.3,29.78,WSW,254,5.0,14.0,68,0.00,,,0.00,VWS V14.01,2013-02-12 21:34:00,
2013-02-12 16:39:00,36.7,27.5,29.78,WNW,295,11.0,17.0,69,0.00,,,0.00,VWS V14.01,2013-02-12 21:39:00,
2013-02-12 16:44:00,36.6,27.4,29.78,WNW,292,14.0,18.0,69,0.00,,,0.00,VWS V14.01,2013-02-12 21:44:00,
2013-02-12 16:49:00,36.4,27.2,29.78,West,273,13.0,19.0,69,0.00,,,0.00,VWS V14.01,2013-02-12 21:49:00,
2013-02-12 16:54:00,36.3,27.1,29.78,West,278,5.0,19.0,69,0.00,,,0.00,VWS V14.01,2013-02-12 21:54:00,
2013-02-12 16:59:00,36.2,27.4,29.78,WNW,298,14.0,19.0,70,0.00,,,0.00,VWS V14.01,2013-02-12 21:59:00,
2013-02-12 17:04:00,36.0,27.2,29.79,NW,309,5.0,19.0,70,0.00,,,0.00,VWS V14.01,2013-02-12 22:04:00,
2013-02-12 17:09:00,35.9,27.1,29.79,West,265,6.0,8.0,70,0.00,,,0.00,VWS V14.01,2013-02-12 22:09:00,
2013-02-12 17:14:00,35.8,27.3,29.78,WNW,298,9.0,13.0,71,0.00,,,0.00,VWS V14.01,2013-02-12 22:14:00,
2013-02-12 17:19:00,35.8,27.0,29.78,NW,319,4.0,13.0,70,0.00,,,0.00,VWS V14.01,2013-02-12 22:19:00,
2013-02-12 17:24:00,35.7,27.2,29.78,SW,234,11.0,13.0,71,0.00,,,0.00,VWS V14.01,2013-02-12 22:24:00,
2013-02-12 17:29:00,35.6,27.1,29.79,West,271,4.0,13.0,71,0.00,,,0.00,VWS V14.01,2013-02-12 22:29:00,
2013-02-12 17:34:00,35.5,27.4,29.79,West,264,3.0,13.0,72,0.00,,,0.00,VWS V14.01,2013-02-12 22:34:00,
2013-02-12 17:39:00,35.5,27.4,29.79,WSW,244,8.0,8.0,72,0.00,,,0.00,VWS V14.01,2013-02-12 22:39:00,
2013-02-12 17:44:00,35.5,27.4,29.79,WSW,251,7.0,11.0,72,0.00,,,0.00,VWS V14.01,2013-02-12 22:44:00,
2013-02-12 17:49:00,35.3,27.2,29.79,WNW,286,6.0,11.0,72,0.00,,,0.00,VWS V14.01,2013-02-12 22:49:00,
2013-02-12 17:54:00,35.3,27.2,29.78,WSW,241,5.0,11.0,72,0.00,,,0.00,VWS V14.01,2013-02-12 22:54:00,
2013-02-12 17:59:00,35.0,26.9,29.78,WNW,284,6.0,11.0,72,0.00,,,0.00,VWS V14.01,2013-02-12 22:59:00,
2013-02-12 18:04:00,35.0,26.9,29.79,WNW,288,4.0,11.0,72,0.00,,,0.00,VWS V14.01,2013-02-12 23:04:00,
2013-02-12 18:09:00,35.0,27.2,29.79,West,277,1.0,9.0,73,0.00,,,0.00,VWS V14.01,2013-02-12 23:09:00,
2013-02-12 18:14:00,34.9,27.1,29.80,WSW,257,4.0,9.0,73,0.00,,,0.00,VWS V14.01,2013-02-12 23:14:00,
2013-02-12 18:19:00,35.0,27.2,29.80,West,261,10.0,13.0,73,0.00,,,0.00,VWS V14.01,2013-02-12 23:19:00,
2013-02-12 18:24:00,34.9,27.1,29.80,WSW,252,6.0,13.0,73,0.00,,,0.00,VWS V14.01,2013-02-12 23:24:00,
2013-02-12 18:29:00,34.8,27.0,29.80,West,266,3.0,13.0,73,0.00,,,0.00,VWS V14.01,2013-02-12 23:29:00,
2013-02-12 18:34:00,34.8,27.0,29.81,NW,304,1.0,13.0,73,0.00,,,0.00,VWS V14.01,2013-02-12 23:34:00,
2013-02-12 18:39:00,34.7,27.0,29.82,WNW,286,5.0,10.0,73,0.00,,,0.00,VWS V14.01,2013-02-12 23:39:00,
2013-02-12 18:44:00,34.8,27.0,29.82,WSW,246,4.0,10.0,73,0.00,,,0.00,VWS V14.01,2013-02-12 23:44:00,
2013-02-12 18:49:00,34.7,27.0,29.83,WNW,292,4.0,11.0,73,0.00,,,0.00,VWS V14.01,2013-02-12 23:49:00,
2013-02-12 18:54:00,34.6,27.2,29.83,West,263,14.0,14.0,74,0.00,,,0.00,VWS V14.01,2013-02-12 23:54:00,
2013-02-12 18:59:00,34.6,26.9,29.84,WSW,254,3.0,14.0,73,0.00,,,0.00,VWS V14.01,2013-02-12 23:59:00,
2013-02-12 19:04:00,34.6,26.9,29.84,WSW,257,1.0,14.0,73,0.00,,,0.00,VWS V14.01,2013-02-13 00:04:00,
2013-02-12 19:09:00,34.6,27.2,29.84,SW,229,3.0,7.0,74,0.00,,,0.00,VWS V14.01,2013-02-13 00:09:00,
2013-02-12 19:14:00,34.5,27.1,29.85,West,267,3.0,9.0,74,0.00,,,0.00,VWS V14.01,2013-02-13 00:14:00,
2013-02-12 19:19:00,34.5,26.8,29.86,West,274,2.0,16.0,73,0.00,,,0.00,VWS V14.01,2013-02-13 00:19:00,
2013-02-12 19:24:00,34.4,27.0,29.86,SW,219,6.0,16.0,74,0.00,,,0.00,VWS V14.01,2013-02-13 00:24:00,
2013-02-12 19:29:00,34.3,26.9,29.87,West,262,1.0,16.0,74,0.00,,,0.00,VWS V14.01,2013-02-13 00:29:00,
2013-02-12 19:34:00,34.2,27.1,29.87,WNW,282,9.0,16.0,75,0.00,,,0.00,VWS V14.01,2013-02-13 00:34:00,
2013-02-12 19:39:00,34.2,26.8,29.88,West,275,4.0,12.0,74,0.00,,,0.00,VWS V14.01,2013-02-13 00:39:00,
2013-02-12 19:44:00,34.1,27.0,29.88,West,262,1.0,12.0,75,0.00,,,0.00,VWS V14.01,2013-02-13 00:44:00,
2013-02-12 19:49:00,34.0,26.9,29.89,WNW,288,9.0,19.0,75,0.00,,,0.00,VWS V14.01,2013-02-13 00:49:00,
2013-02-12 19:54:00,34.0,26.9,29.89,WSW,239,7.0,19.0,75,0.00,,,0.00,VWS V14.01,2013-02-13 00:54:00,
2013-02-12 19:59:00,34.0,26.9,29.90,WNW,290,2.0,19.0,75,0.00,,,0.00,VWS V14.01,2013-02-13 00:59:00,
2013-02-12 20:04:00,34.0,26.3,29.90,West,275,5.0,19.0,73,0.00,,,0.00,VWS V14.01,2013-02-13 01:04:00,
2013-02-12 20:09:00,34.1,26.4,29.90,WSW,242,6.0,14.0,73,0.00,,,0.00,VWS V14.01,2013-02-13 01:09:00,
2013-02-12 20:14:00,34.2,26.1,29.90,West,267,3.0,15.0,72,0.00,,,0.00,VWS V14.01,2013-02-13 01:14:00,
2013-02-12 20:19:00,34.1,26.0,29.89,West,261,14.0,15.0,72,0.00,,,0.00,VWS V14.01,2013-02-13 01:19:00,
2013-02-12 20:24:00,34.2,25.8,29.90,NW,312,10.0,19.0,71,0.00,,,0.00,VWS V14.01,2013-02-13 01:24:00,
2013-02-12 20:29:00,34.1,26.0,29.90,WNW,291,6.0,19.0,72,0.00,,,0.00,VWS V14.01,2013-02-13 01:29:00,
2013-02-12 20:34:00,34.1,25.7,29.89,West,275,11.0,19.0,71,0.00,,,0.00,VWS V14.01,2013-02-13 01:34:00,
2013-02-12 20:39:00,34.1,25.7,29.90,WNW,288,4.0,18.0,71,0.00,,,0.00,VWS V14.01,2013-02-13 01:39:00,
2013-02-12 20:44:00,34.0,25.3,29.89,WNW,299,3.0,18.0,70,0.00,,,0.00,VWS V14.01,2013-02-13 01:44:00,
2013-02-12 20:49:00,33.9,25.2,29.90,West,261,5.0,18.0,70,0.00,,,0.00,VWS V14.01,2013-02-13 01:49:00,
2013-02-12 20:54:00,33.6,25.2,29.89,WSW,256,10.0,18.0,71,0.00,,,0.00,VWS V14.01,2013-02-13 01:54:00,
2013-02-12 20:59:00,33.5,24.8,29.88,NE,36,3.0,18.0,70,0.00,,,0.00,VWS V14.01,2013-02-13 01:59:00,
2013-02-12 21:04:00,33.4,25.0,29.88,WNW,302,1.0,18.0,71,0.00,,,0.00,VWS V14.01,2013-02-13 02:04:00,
2013-02-12 21:09:00,33.2,24.8,29.88,West,263,3.0,6.0,71,0.00,,,0.00,VWS V14.01,2013-02-13 02:09:00,
2013-02-12 21:14:00,33.2,25.2,29.87,NNW,328,3.0,9.0,72,0.00,,,0.00,VWS V14.01,2013-02-13 02:14:00,
2013-02-12 21:19:00,33.1,25.1,29.88,WSW,250,0.0,9.0,72,0.00,,,0.00,VWS V14.01,2013-02-13 02:19:00,
2013-02-12 21:24:00,32.7,24.7,29.88,WSW,255,4.0,9.0,72,0.00,,,0.00,VWS V14.01,2013-02-13 02:24:00,
2013-02-12 21:29:00,32.4,24.7,29.88,West,279,0.0,9.0,73,0.00,,,0.00,VWS V14.01,2013-02-13 02:29:00,
2013-02-12 21:34:00,32.3,25.0,29.87,West,261,2.0,9.0,74,0.00,,,0.00,VWS V14.01,2013-02-13 02:34:00,
2013-02-12 21:39:00,32.4,25.0,29.87,NW,312,2.0,8.0,74,0.00,,,0.00,VWS V14.01,2013-02-13 02:39:00,
2013-02-12 21:44:00,32.4,25.0,29.87,West,280,2.0,8.0,74,0.00,,,0.00,VWS V14.01,2013-02-13 02:44:00,
2013-02-12 21:49:00,32.3,25.0,29.87,West,271,2.0,10.0,74,0.00,,,0.00,VWS V14.01,2013-02-13 02:49:00,
2013-02-12 21:54:00,32.2,24.9,29.87,WSW,255,2.0,10.0,74,0.00,,,0.00,VWS V14.01,2013-02-13 02:54:00,
2013-02-12 21:59:00,32.3,25.0,29.87,WSW,255,7.0,10.0,74,0.00,,,0.00,VWS V14.01,2013-02-13 02:59:00,
2013-02-12 22:04:00,32.4,25.0,29.87,WSW,243,12.0,12.0,74,0.00,,,0.00,VWS V14.01,2013-02-13 03:04:00,
2013-02-12 22:09:00,32.7,25.3,29.87,West,276,4.0,10.0,74,0.00,,,0.00,VWS V14.01,2013-02-13 03:09:00,
2013-02-12 22:14:00,33.0,25.3,29.86,West,265,2.0,10.0,73,0.00,,,0.00,VWS V14.01,2013-02-13 03:14:00,
2013-02-12 22:19:00,33.0,25.3,29.86,West,278,4.0,10.0,73,0.00,,,0.00,VWS V14.01,2013-02-13 03:19:00,
2013-02-12 22:24:00,33.0,25.3,29.87,WNW,298,1.0,10.0,73,0.00,,,0.00,VWS V14.01,2013-02-13 03:24:00,
2013-02-12 22:29:00,33.0,25.3,29.86,West,261,8.0,10.0,73,0.00,,,0.00,VWS V14.01,2013-02-13 03:29:00,
2013-02-12 22:34:00,33.2,25.2,29.86,West,275,7.0,10.0,72,0.00,,,0.00,VWS V14.01,2013-02-13 03:34:00,
2013-02-12 22:39:00,33.3,25.3,29.85,NW,325,3.0,7.0,72,0.00,,,0.00,VWS V14.01,2013-02-13 03:39:00,
2013-02-12 22:44:00,33.2,25.2,29.85,WNW,288,3.0,8.0,72,0.00,,,0.00,VWS V14.01,2013-02-13 03:44:00,
2013-02-12 22:49:00,33.1,25.1,29.85,West,279,6.0,8.0,72,0.00,,,0.00,VWS V14.01,2013-02-13 03:49:00,
2013-02-12 22:54:00,33.1,25.1,29.85,WNW,283,7.0,8.0,72,0.00,,,0.00,VWS V14.01,2013-02-13 03:54:00,
2013-02-12 22:59:00,33.1,24.7,29.85,NW,308,3.0,8.0,71,0.00,,,0.00,VWS V14.01,2013-02-13 03:59:00,
2013-02-12 23:04:00,33.1,24.7,29.85,WSW,252,3.0,8.0,71,0.00,,,0.00,VWS V14.01,2013-02-13 04:04:00,
2013-02-12 23:09:00,33.1,24.7,29.86,West,266,6.0,6.0,71,0.00,,,0.00,VWS V14.01,2013-02-13 04:09:00,
2013-02-12 23:14:00,33.2,24.5,29.86,West,272,3.0,8.0,70,0.00,,,0.00,VWS V14.01,2013-02-13 04:14:00,
2013-02-12 23:19:00,33.1,24.7,29.86,WNW,282,3.0,8.0,71,0.00,,,0.00,VWS V14.01,2013-02-13 04:19:00,
2013-02-12 23:24:00,33.1,24.4,29.86,WNW,282,2.0,11.0,70,0.00,,,0.00,VWS V14.01,2013-02-13 04:24:00,
2013-02-12 23:29:00,33.0,24.3,29.85,WNW,285,4.0,12.0,70,0.00,,,0.00,VWS V14.01,2013-02-13 04:29:00,
2013-02-12 23:34:00,32.9,24.2,29.85,West,259,6.0,12.0,70,0.00,,,0.00,VWS V14.01,2013-02-13 04:34:00,
2013-02-12 23:39:00,32.7,24.0,29.86,WNW,298,5.0,7.0,70,0.00,,,0.00,VWS V14.01,2013-02-13 04:39:00,
2013-02-12 23:44:00,32.4,23.7,29.86,WSW,238,5.0,8.0,70,0.00,,,0.00,VWS V14.01,2013-02-13 04:44:00,
2013-02-12 23:49:00,32.3,23.6,29.87,West,280,3.0,8.0,70,0.00,,,0.00,VWS V14.01,2013-02-13 04:49:00,
2013-02-12 23:54:00,32.0,23.3,29.86,West,273,4.0,11.0,70,0.00,,,0.00,VWS V14.01,2013-02-13 04:54:00,
2013-02-12 23:59:00,31.9,23.2,29.87,West,280,3.0,11.0,70,0.00,,,0.00,VWS V14.01,2013-02-13 04:59:00,